Time;durP1;ratioP1;P1;durP2;ratioP2;P2;SDS_P1;SDS_P2;PMS_P1;PMS_P2;Temp;Humidity;BMP_temperature;BMP_pressure;BME280_temperature;BME280_humidity;BME280_pressure;Samples;Min_cycle;Max_cycle;Signal;HPM_P1;HPM_P2
2023/12/22 00:02:18;;;;;;;3.57;1.17;;;;;;;9.32;100.00;99145.13;5077347;28;20653;-78
2023/12/22 00:04:43;;;;;;;2.80;1.13;;;;;;;9.31;100.00;99156.34;5073712;28;20181;-77
2023/12/22 00:07:08;;;;;;;3.63;1.40;;;;;;;9.30;100.00;99152.09;5074623;28;20281;-78
2023/12/22 00:09:34;;;;;;;3.40;1.33;;;;;;;9.32;100.00;99160.63;5070040;28;20763;-77
2023/12/22 00:11:59;;;;;;;3.00;1.37;;;;;;;9.28;100.00;99169.34;5074500;28;21018;-79
2023/12/22 00:14:24;;;;;;;5.90;1.63;;;;;;;9.29;100.00;99178.78;5080150;28;20213;-78
2023/12/22 00:16:50;;;;;;;4.07;1.40;;;;;;;9.26;100.00;99178.84;5075111;28;20200;-78
2023/12/22 00:19:15;;;;;;;4.20;1.70;;;;;;;9.26;100.00;99184.84;5079527;28;20201;-77
2023/12/22 00:21:40;;;;;;;3.23;1.30;;;;;;;9.23;100.00;99194.41;5076882;28;20195;-78
2023/12/22 00:24:06;;;;;;;3.90;1.43;;;;;;;9.21;100.00;99183.25;5076591;28;20181;-78
2023/12/22 00:26:31;;;;;;;2.70;1.20;;;;;;;9.19;100.00;99195.34;5076397;28;20264;-78
2023/12/22 00:28:56;;;;;;;4.00;1.37;;;;;;;9.19;100.00;99208.25;5076436;28;20288;-78
2023/12/22 00:31:22;;;;;;;2.37;1.33;;;;;;;9.19;100.00;99222.00;5080448;28;20567;-78
2023/12/22 00:33:47;;;;;;;3.00;1.30;;;;;;;9.20;100.00;99221.13;5081825;28;20215;-77
2023/12/22 00:36:12;;;;;;;3.70;1.53;;;;;;;9.23;100.00;99217.63;5079813;28;20256;-78
2023/12/22 00:38:38;;;;;;;3.27;1.50;;;;;;;9.28;100.00;99205.50;5077716;28;20682;-80
2023/12/22 00:41:03;;;;;;;4.67;1.73;;;;;;;9.26;100.00;99215.00;5080835;28;20189;-77
2023/12/22 00:43:28;;;;;;;3.90;1.70;;;;;;;9.24;100.00;99196.94;5076977;28;20275;-77
2023/12/22 00:45:54;;;;;;;2.63;1.37;;;;;;;9.16;100.00;99196.25;5076624;28;20185;-78
2023/12/22 00:48:19;;;;;;;3.07;1.50;;;;;;;9.11;100.00;99190.34;5080309;28;20205;-78
2023/12/22 00:50:44;;;;;;;2.93;1.30;;;;;;;9.10;100.00;99171.44;5074794;28;20609;-78
2023/12/22 00:53:09;;;;;;;3.83;1.33;;;;;;;9.08;100.00;99174.91;5078557;28;20724;-77
2023/12/22 00:55:35;;;;;;;3.13;1.20;;;;;;;9.03;100.00;99179.31;5072531;28;20254;-79
2023/12/22 00:58:00;;;;;;;3.00;1.00;;;;;;;9.00;100.00;99175.06;5080598;28;21998;-78
2023/12/22 01:00:25;;;;;;;3.60;1.10;;;;;;;8.96;100.00;99186.34;5072356;28;20265;-76
2023/12/22 01:02:51;;;;;;;3.20;0.90;;;;;;;8.94;100.00;99183.78;5071347;28;20181;-78
2023/12/22 01:05:16;;;;;;;1.63;0.70;;;;;;;8.91;100.00;99180.41;5073829;28;20668;-77
2023/12/22 01:07:42;;;;;;;1.70;0.60;;;;;;;8.84;100.00;99185.72;5076333;28;20201;-77
2023/12/22 01:10:09;;;;;;;1.40;0.80;;;;;;;8.77;100.00;99201.34;5071421;28;20719;-78
2023/12/22 01:12:34;;;;;;;2.67;0.60;;;;;;;8.69;100.00;99194.59;5074122;28;20182;-77
2023/12/22 01:14:59;;;;;;;1.87;0.60;;;;;;;8.65;100.00;99198.09;5077346;28;20196;-79
2023/12/22 01:17:25;;;;;;;1.23;0.60;;;;;;;8.60;100.00;99212.81;5074420;28;20193;-78
2023/12/22 01:19:51;;;;;;;1.57;0.70;;;;;;;8.56;100.00;99230.94;5075142;28;20205;-79
2023/12/22 01:22:16;;;;;;;1.60;0.80;;;;;;;8.50;100.00;99226.75;5080665;28;20187;-78
2023/12/22 01:24:43;;;;;;;1.63;0.80;;;;;;;8.44;100.00;99237.16;5080752;28;20657;-78
2023/12/22 01:27:09;;;;;;;2.77;0.90;;;;;;;8.37;100.00;99249.28;5077452;28;20192;-78
2023/12/22 01:29:35;;;;;;;2.40;0.80;;;;;;;8.31;100.00;99247.66;5077099;28;20334;-78
2023/12/22 01:32:00;;;;;;;1.70;0.73;;;;;;;8.31;100.00;99262.25;5078227;28;20628;-79
2023/12/22 01:34:25;;;;;;;1.20;0.50;;;;;;;8.25;100.00;99270.97;5076023;28;20219;-78
2023/12/22 01:36:51;;;;;;;1.40;0.70;;;;;;;8.19;100.00;99276.19;5078569;28;20205;-77
2023/12/22 01:39:16;;;;;;;1.87;1.00;;;;;;;8.13;100.00;99284.88;5078374;28;20209;-78
2023/12/22 01:41:42;;;;;;;2.30;0.70;;;;;;;8.12;100.00;99300.38;5078671;28;20180;-79
2023/12/22 01:44:07;;;;;;;2.33;0.80;;;;;;;8.11;100.00;99290.94;5076608;28;20181;-77
2023/12/22 01:46:34;;;;;;;1.70;0.70;;;;;;;8.12;100.00;99283.16;5075528;28;20184;-77
2023/12/22 01:49:03;;;;;;;3.30;1.20;;;;;;;8.16;100.00;99284.00;5072638;28;21589;-78
2023/12/22 01:51:33;;;;;;;2.37;1.13;;;;;;;8.20;100.00;99291.66;5076067;28;20181;-78
2023/12/22 01:54:00;;;;;;;3.23;1.03;;;;;;;8.22;100.00;99296.78;5075173;28;20243;-78
2023/12/22 01:56:25;;;;;;;2.80;1.20;;;;;;;8.21;100.00;99284.75;5067436;28;20199;-78
2023/12/22 01:58:55;;;;;;;2.53;1.23;;;;;;;8.19;100.00;99295.09;5071520;28;20202;-78
2023/12/22 02:01:22;;;;;;;2.20;1.10;;;;;;;8.25;100.00;99291.56;5076203;28;20192;-77
2023/12/22 02:03:54;;;;;;;3.30;1.40;;;;;;;8.29;100.00;99298.41;5076560;28;20214;-78
2023/12/22 02:06:20;;;;;;;2.10;1.30;;;;;;;8.38;100.00;99280.19;5073549;28;20421;-78
2023/12/22 02:08:48;;;;;;;3.50;1.20;;;;;;;8.40;100.00;99280.16;5071228;28;20215;-77
2023/12/22 02:11:14;;;;;;;2.10;1.40;;;;;;;8.41;100.00;99271.53;5074020;28;20243;-78
2023/12/22 02:13:41;;;;;;;4.00;1.20;;;;;;;8.47;100.00;99268.03;5075592;28;20398;-77
2023/12/22 02:16:14;;;;;;;2.50;1.07;;;;;;;8.46;100.00;99279.22;5074784;28;20191;-79
2023/12/22 02:18:43;;;;;;;3.10;1.23;;;;;;;8.46;100.00;99279.22;5070458;28;20616;-77
2023/12/22 02:21:08;;;;;;;5.40;1.53;;;;;;;8.51;100.00;99275.72;5074784;28;21911;-78
2023/12/22 02:23:33;;;;;;;2.27;1.20;;;;;;;8.54;100.00;99274.81;5078781;28;20177;-78
2023/12/22 02:26:13;;;;;;;3.47;1.50;;;;;;;8.52;100.00;99271.41;5071441;28;20185;-78
2023/12/22 02:28:39;;;;;;;2.63;1.20;;;;;;;8.48;100.00;99259.44;5076388;28;20200;-77
2023/12/22 02:31:17;;;;;;;5.03;1.77;;;;;;;8.53;100.00;99270.53;5076019;28;20226;-78
2023/12/22 02:33:45;;;;;;;4.73;1.40;;;;;;;8.47;100.00;99271.47;5071358;28;20865;-78
2023/12/22 02:36:13;;;;;;;3.27;1.50;;;;;;;8.48;100.00;99267.16;5073598;28;20611;-78
2023/12/22 02:38:40;;;;;;;2.03;1.10;;;;;;;8.46;100.00;99271.50;5074329;28;20211;-78
2023/12/22 02:41:05;;;;;;;3.27;1.53;;;;;;;8.47;100.00;99270.63;5075507;28;20178;-78
2023/12/22 02:43:31;;;;;;;4.30;1.70;;;;;;;8.45;100.00;99269.78;5077319;28;20541;-78
2023/12/22 02:45:56;;;;;;;4.27;1.47;;;;;;;8.39;100.00;99279.31;5079709;28;20215;-78
2023/12/22 02:48:22;;;;;;;3.20;1.23;;;;;;;8.35;100.00;99281.97;5078097;28;20216;-77
2023/12/22 02:50:47;;;;;;;4.03;1.40;;;;;;;8.32;100.00;99267.38;5080730;28;20197;-77
2023/12/22 02:53:12;;;;;;;2.73;1.30;;;;;;;8.31;100.00;99270.00;5080237;28;20220;-77
2023/12/22 02:55:37;;;;;;;2.90;1.37;;;;;;;8.31;100.00;99281.19;5075169;28;20193;-78
2023/12/22 02:58:03;;;;;;;3.97;1.50;;;;;;;8.38;100.00;99274.19;5068008;28;20218;-77
2023/12/22 03:00:28;;;;;;;3.60;1.20;;;;;;;8.40;100.00;99275.00;5077881;28;20189;-77
2023/12/22 03:02:54;;;;;;;3.10;1.20;;;;;;;8.44;100.00;99271.50;5075651;28;20192;-78
2023/12/22 03:05:19;;;;;;;3.50;0.97;;;;;;;8.47;100.00;99278.34;5080716;28;20208;-77
2023/12/22 03:07:44;;;;;;;3.43;1.40;;;;;;;8.54;100.00;99280.84;5079261;28;20196;-78
2023/12/22 03:10:10;;;;;;;2.67;1.13;;;;;;;8.51;100.00;99286.03;5078554;28;20208;-79
2023/12/22 03:12:35;;;;;;;2.47;1.17;;;;;;;8.53;100.00;99283.41;5081630;28;20188;-77
2023/12/22 03:15:00;;;;;;;2.13;1.23;;;;;;;8.53;100.00;99299.75;5079463;28;20913;-79
2023/12/22 03:17:26;;;;;;;3.40;1.10;;;;;;;8.57;100.00;99289.38;5078386;28;20249;-78
2023/12/22 03:19:52;;;;;;;3.20;1.33;;;;;;;8.54;100.00;99278.25;5080774;28;20211;-78
2023/12/22 03:22:17;;;;;;;4.27;1.57;;;;;;;8.62;100.00;99283.25;5079069;28;20181;-77
2023/12/22 03:24:44;;;;;;;3.07;1.40;;;;;;;8.57;100.00;99279.94;5081780;28;20196;-78
2023/12/22 03:27:09;;;;;;;2.93;1.40;;;;;;;8.59;100.00;99274.72;5081706;28;20822;-78
2023/12/22 03:29:34;;;;;;;4.77;1.30;;;;;;;8.59;100.00;99264.41;5079112;28;20258;-78
2023/12/22 03:32:00;;;;;;;4.13;1.43;;;;;;;8.57;100.00;99285.09;5081386;28;20202;-75
2023/12/22 03:34:25;;;;;;;4.40;1.57;;;;;;;8.58;100.00;99279.06;5082449;28;20271;-79
2023/12/22 03:36:50;;;;;;;6.70;1.80;;;;;;;8.58;100.00;99283.34;5081836;28;20677;-78
2023/12/22 03:39:16;;;;;;;4.40;1.33;;;;;;;8.55;100.00;99279.09;5076308;28;20218;-78
2023/12/22 03:41:41;;;;;;;3.63;1.80;;;;;;;8.51;100.00;99275.72;5079875;28;20186;-78
2023/12/22 03:44:07;;;;;;;4.50;1.70;;;;;;;8.50;100.00;99284.34;5080232;28;20279;-77
2023/12/22 03:46:32;;;;;;;3.03;1.40;;;;;;;8.47;100.00;99288.66;5083104;28;20198;-79
2023/12/22 03:48:58;;;;;;;3.17;1.33;;;;;;;8.46;100.00;99284.38;5080657;28;20323;-78
2023/12/22 03:51:23;;;;;;;5.67;1.73;;;;;;;8.44;100.00;99289.56;5078095;28;20280;-77
2023/12/22 03:53:48;;;;;;;5.57;1.83;;;;;;;8.48;100.00;99306.72;5076516;28;20203;-78
2023/12/22 03:56:14;;;;;;;4.13;2.20;;;;;;;8.49;100.00;99341.94;5076370;28;20217;-78
2023/12/22 03:58:39;;;;;;;4.77;1.93;;;;;;;8.49;100.00;99335.91;5076940;28;20207;-77
2023/12/22 04:01:07;;;;;;;6.27;1.77;;;;;;;8.48;100.00;99319.59;5076591;28;20258;-78
2023/12/22 04:03:32;;;;;;;6.83;2.17;;;;;;;8.50;100.00;99322.16;5079709;28;20182;-79
2023/12/22 04:05:58;;;;;;;4.90;2.13;;;;;;;8.47;100.00;99333.34;5078196;28;20195;-77
2023/12/22 04:08:23;;;;;;;5.43;2.00;;;;;;;8.43;100.00;99323.09;5077699;28;20207;-78
2023/12/22 04:10:48;;;;;;;5.67;2.03;;;;;;;8.36;100.00;99320.59;5073312;28;20189;-78
2023/12/22 04:13:14;;;;;;;7.13;2.13;;;;;;;8.32;100.00;99320.69;5075569;28;20215;-79
2023/12/22 04:15:39;;;;;;;5.17;2.40;;;;;;;8.29;100.00;99318.16;5074550;28;20642;-78
2023/12/22 04:18:05;;;;;;;7.10;2.77;;;;;;;8.26;100.00;99308.75;5074755;28;20224;-78
2023/12/22 04:20:31;;;;;;;6.17;2.30;;;;;;;8.23;100.00;99314.81;5075334;28;20213;-78
2023/12/22 04:22:56;;;;;;;6.00;2.27;;;;;;;8.17;100.00;99312.31;5075410;28;20190;-77
2023/12/22 04:25:23;;;;;;;6.73;3.00;;;;;;;8.17;100.00;99309.72;5074883;28;20658;-77
2023/12/22 04:27:49;;;;;;;6.73;2.30;;;;;;;8.11;100.00;99306.41;5077919;28;20191;-78
2023/12/22 04:30:14;;;;;;;8.10;2.33;;;;;;;8.06;100.00;99309.03;5073460;28;20191;-80
2023/12/22 04:32:40;;;;;;;6.50;2.67;;;;;;;8.01;100.00;99303.97;5079160;28;20777;-78
2023/12/22 04:35:05;;;;;;;7.43;2.80;;;;;;;8.00;100.00;99309.13;5076830;28;20571;-78
2023/12/22 04:37:31;;;;;;;9.73;2.93;;;;;;;7.98;100.00;99305.72;5078010;28;20284;-77
2023/12/22 04:39:56;;;;;;;6.37;2.23;;;;;;;7.96;100.00;99322.91;5076184;28;20241;-79
2023/12/22 04:42:21;;;;;;;6.93;2.30;;;;;;;7.94;100.00;99321.22;5080727;28;20236;-78
2023/12/22 04:44:47;;;;;;;5.30;2.80;;;;;;;7.97;100.00;99332.34;5077074;28;20317;-78
2023/12/22 04:47:13;;;;;;;7.07;2.40;;;;;;;7.93;100.00;99339.28;5081337;28;20569;-77
2023/12/22 04:49:38;;;;;;;7.40;2.40;;;;;;;7.94;100.00;99346.13;5078394;28;20197;-79
2023/12/22 04:52:04;;;;;;;7.80;2.60;;;;;;;7.96;100.00;99343.53;5079409;28;20189;-78
2023/12/22 04:54:29;;;;;;;11.13;3.10;;;;;;;7.97;100.00;99345.22;5074482;28;20204;-78
2023/12/22 04:56:55;;;;;;;5.87;2.73;;;;;;;7.99;100.00;99336.63;5076102;28;20191;-77
2023/12/22 04:59:20;;;;;;;6.17;2.70;;;;;;;8.03;100.00;99347.72;5074057;28;20668;-78
2023/12/22 05:01:45;;;;;;;8.60;2.73;;;;;;;8.04;100.00;99360.59;5073606;28;20289;-77
2023/12/22 05:04:11;;;;;;;7.47;2.80;;;;;;;8.07;100.00;99337.34;5073407;28;20187;-78
2023/12/22 05:06:37;;;;;;;8.33;3.00;;;;;;;8.09;100.00;99329.63;5075528;28;20190;-79
2023/12/22 05:09:03;;;;;;;8.03;3.13;;;;;;;8.15;100.00;99339.00;5079504;28;20501;-79
2023/12/22 05:11:28;;;;;;;10.47;3.20;;;;;;;8.17;100.00;99329.47;5084768;28;20205;-77
2023/12/22 05:13:54;;;;;;;7.53;2.87;;;;;;;8.18;100.00;99337.22;5078901;28;20858;-77
2023/12/22 05:16:19;;;;;;;13.07;3.50;;;;;;;8.22;100.00;99332.84;5084405;28;20181;-78
2023/12/22 05:18:44;;;;;;;8.77;3.00;;;;;;;8.22;100.00;99345.75;5071253;28;20635;-78
2023/12/22 05:21:14;;;;;;;6.63;3.37;;;;;;;8.26;100.00;99352.56;5074553;28;20736;-78
2023/12/22 05:23:40;;;;;;;9.93;3.67;;;;;;;8.28;100.00;99340.50;5069818;28;20183;-78
2023/12/22 05:26:05;;;;;;;12.47;3.67;;;;;;;8.33;100.00;99351.59;5075139;28;20215;-77
2023/12/22 05:28:30;;;;;;;9.60;2.93;;;;;;;8.34;100.00;99339.56;5073889;28;20364;-77
2023/12/22 05:30:56;;;;;;;11.80;3.37;;;;;;;8.35;100.00;99359.31;5076689;28;20578;-77
2023/12/22 05:33:21;;;;;;;8.80;3.37;;;;;;;8.31;100.00;99384.28;5076058;28;20616;-78
2023/12/22 05:35:46;;;;;;;8.60;2.80;;;;;;;8.29;100.00;99411.81;5076164;28;20569;-78
2023/12/22 05:38:12;;;;;;;8.60;3.17;;;;;;;8.34;100.00;99393.69;5074456;28;20207;-79
2023/12/22 05:40:37;;;;;;;7.10;3.00;;;;;;;8.38;100.00;99400.53;5072476;28;20542;-78
2023/12/22 05:43:02;;;;;;;9.10;3.17;;;;;;;8.39;100.00;99405.66;5078728;28;20199;-78
2023/12/22 05:45:28;;;;;;;11.07;3.67;;;;;;;8.42;100.00;99412.47;5078087;28;20243;-77
2023/12/22 05:47:54;;;;;;;7.07;2.97;;;;;;;8.42;100.00;99424.53;5075738;28;20200;-77
2023/12/22 05:50:19;;;;;;;8.37;2.87;;;;;;;8.43;100.00;99414.19;5070538;28;20223;-78
2023/12/22 05:52:45;;;;;;;10.63;3.40;;;;;;;8.45;100.00;99421.91;5075373;28;20817;-79
2023/12/22 05:55:10;;;;;;;6.30;2.70;;;;;;;8.42;100.00;99399.59;5067601;28;20703;-78
2023/12/22 05:57:36;;;;;;;7.93;3.47;;;;;;;8.44;100.00;99404.75;5069351;28;20184;-78
2023/12/22 06:00:04;;;;;;;8.80;3.00;;;;;;;8.48;100.00;99417.59;5071216;28;20229;-77
2023/12/22 06:02:30;;;;;;;9.17;2.70;;;;;;;8.52;100.00;99418.38;5074470;28;20183;-77
2023/12/22 06:04:55;;;;;;;9.10;2.70;;;;;;;8.55;100.00;99408.03;5076644;28;20181;-77
2023/12/22 06:07:20;;;;;;;7.83;3.00;;;;;;;8.54;100.00;99419.22;5074781;28;20307;-77
2023/12/22 06:09:46;;;;;;;7.73;2.57;;;;;;;8.52;100.00;99416.69;5072007;28;20205;-77
2023/12/22 06:12:11;;;;;;;9.27;3.57;;;;;;;8.54;100.00;99427.84;5074075;28;20184;-78
2023/12/22 06:14:36;;;;;;;9.23;3.37;;;;;;;8.54;100.00;99417.50;5072315;28;20209;-77
2023/12/22 06:17:02;;;;;;;7.03;2.97;;;;;;;8.56;100.00;99417.47;5072775;28;20185;-77
2023/12/22 06:19:30;;;;;;;6.13;2.70;;;;;;;8.54;100.00;99407.19;5077095;28;20266;-77
2023/12/22 06:21:55;;;;;;;7.77;2.77;;;;;;;8.53;100.00;99423.53;5076311;28;20695;-78
2023/12/22 06:24:21;;;;;;;7.07;2.93;;;;;;;8.56;100.00;99435.53;5076053;28;20178;-78
2023/12/22 06:26:47;;;;;;;9.13;2.87;;;;;;;8.61;100.00;99433.75;5075248;28;20657;-78
2023/12/22 06:29:12;;;;;;;7.47;3.17;;;;;;;8.58;100.00;99433.78;5077393;28;20205;-78
2023/12/22 06:31:37;;;;;;;6.60;2.77;;;;;;;8.56;100.00;99438.13;5080440;28;20192;-78
2023/12/22 06:34:03;;;;;;;8.03;3.50;;;;;;;8.54;100.00;99433.00;5077302;28;20719;-79
2023/12/22 06:36:30;;;;;;;10.97;3.40;;;;;;;8.57;100.00;99436.38;5073691;28;20288;-77
2023/12/22 06:38:55;;;;;;;8.17;3.33;;;;;;;8.54;100.00;99429.53;5065495;28;20794;-77
2023/12/22 06:41:29;;;;;;;11.97;3.57;;;;;;;8.59;100.00;99429.47;5065701;28;20181;-77
2023/12/22 06:43:54;;;;;;;8.83;3.70;;;;;;;8.58;100.00;99432.91;5072315;28;20206;-77
2023/12/22 06:46:27;;;;;;;9.00;2.90;;;;;;;8.52;100.00;99426.13;5080386;28;20274;-77
2023/12/22 06:48:54;;;;;;;8.63;3.33;;;;;;;8.50;100.00;99435.59;5072343;28;20200;-77
2023/12/22 06:51:24;;;;;;;9.43;3.30;;;;;;;8.47;100.00;99443.38;5070606;28;20190;-77
2023/12/22 06:53:50;;;;;;;9.30;3.23;;;;;;;8.42;100.00;99452.91;5070033;28;20217;-77
2023/12/22 06:56:19;;;;;;;8.43;3.27;;;;;;;8.44;100.00;99452.00;5067565;28;20670;-78
2023/12/22 06:58:47;;;;;;;8.90;3.13;;;;;;;8.43;100.00;99441.72;5076151;28;20229;-78
2023/12/22 07:01:17;;;;;;;9.70;4.00;;;;;;;8.39;100.00;99444.31;5075414;28;20304;-77
2023/12/22 07:03:42;;;;;;;7.30;3.10;;;;;;;8.36;100.00;99449.50;5069306;28;20183;-76
2023/12/22 07:06:07;;;;;;;9.50;3.50;;;;;;;8.34;100.00;99442.69;5077149;28;20196;-78
2023/12/22 07:08:33;;;;;;;8.77;3.87;;;;;;;8.35;100.00;99441.81;5076292;28;20257;-76
2023/12/22 07:10:58;;;;;;;10.97;3.00;;;;;;;8.31;100.00;99446.16;5078531;28;20219;-78
2023/12/22 07:13:23;;;;;;;11.10;3.60;;;;;;;8.30;100.00;99451.31;5074498;28;20872;-76
2023/12/22 07:15:49;;;;;;;10.23;3.53;;;;;;;8.29;100.00;99444.47;5076305;28;20279;-76
2023/12/22 07:18:14;;;;;;;9.50;3.63;;;;;;;8.30;100.00;99441.00;5076400;28;20705;-77
2023/12/22 07:20:39;;;;;;;8.33;3.67;;;;;;;8.28;100.00;99432.44;5072753;28;20189;-77
2023/12/22 07:23:05;;;;;;;9.73;3.10;;;;;;;8.24;100.00;99441.94;5071255;28;20183;-78
2023/12/22 07:25:35;;;;;;;8.30;3.20;;;;;;;8.26;100.00;99431.59;5069128;28;20189;-78
2023/12/22 07:28:00;;;;;;;7.17;3.30;;;;;;;8.24;100.00;99435.06;5077983;28;20756;-78
2023/12/22 07:30:26;;;;;;;10.13;3.53;;;;;;;8.22;100.00;99416.22;5083776;28;20275;-77
2023/12/22 07:32:52;;;;;;;9.67;3.10;;;;;;;8.22;100.00;99415.34;5080751;28;20237;-77
2023/12/22 07:35:17;;;;;;;8.63;3.43;;;;;;;8.21;100.00;99411.06;5079101;28;20193;-77
2023/12/22 07:37:43;;;;;;;9.53;3.77;;;;;;;8.22;100.00;99423.94;5080727;28;20184;-77
2023/12/22 07:40:09;;;;;;;9.30;3.87;;;;;;;8.21;100.00;99431.66;5077713;28;20288;-76
2023/12/22 07:42:34;;;;;;;13.23;3.57;;;;;;;8.20;100.00;99443.72;5077429;28;20196;-76
2023/12/22 07:44:59;;;;;;;11.43;4.40;;;;;;;8.19;100.00;99433.41;5081755;28;20878;-77
2023/12/22 07:47:26;;;;;;;11.83;3.70;;;;;;;8.22;100.00;99420.50;5080691;28;20216;-78
2023/12/22 07:49:51;;;;;;;16.40;3.83;;;;;;;8.24;100.00;99441.94;5079763;28;20295;-78
2023/12/22 07:52:16;;;;;;;10.00;4.07;;;;;;;8.25;100.00;99448.81;5083191;28;20271;-78
2023/12/22 07:54:42;;;;;;;11.07;3.83;;;;;;;8.24;100.00;99460.00;5078465;28;20209;-78
2023/12/22 07:57:07;;;;;;;10.60;3.70;;;;;;;8.28;100.00;99456.50;5077216;28;20216;-77
2023/12/22 07:59:33;;;;;;;10.97;3.77;;;;;;;8.30;100.00;99459.94;5079461;28;20631;-77
2023/12/22 08:01:58;;;;;;;11.77;3.40;;;;;;;8.35;100.00;99475.31;5079783;28;20213;-77
2023/12/22 08:04:24;;;;;;;10.90;3.57;;;;;;;8.39;100.00;99482.16;5080571;28;20178;-77
2023/12/22 08:06:49;;;;;;;9.83;3.77;;;;;;;8.42;100.00;99494.97;5075930;28;20207;-77
2023/12/22 08:09:15;;;;;;;11.43;3.70;;;;;;;8.50;100.00;99500.06;5078437;28;20235;-77
2023/12/22 08:11:40;;;;;;;11.67;4.47;;;;;;;8.49;100.00;99498.38;5078534;28;20223;-77
2023/12/22 08:14:06;;;;;;;10.53;3.50;;;;;;;8.49;100.00;99501.81;5079268;28;20279;-77
2023/12/22 08:16:32;;;;;;;11.10;3.77;;;;;;;8.53;100.00;99487.16;5077178;28;20232;-77
2023/12/22 08:18:58;;;;;;;12.00;4.23;;;;;;;8.58;100.00;99487.06;5079498;28;20204;-77
2023/12/22 08:21:23;;;;;;;9.53;4.30;;;;;;;8.54;100.00;99489.72;5079365;28;20288;-77
2023/12/22 08:23:48;;;;;;;10.70;4.37;;;;;;;8.60;100.00;99505.97;5080573;28;20169;-78
2023/12/22 08:26:17;;;;;;;11.90;3.90;;;;;;;8.61;100.00;99500.81;5078935;28;20198;-77
2023/12/22 08:28:42;;;;;;;9.83;3.60;;;;;;;8.63;100.00;99506.78;5082438;28;20197;-77
2023/12/22 08:31:07;;;;;;;10.00;4.17;;;;;;;8.65;100.00;99510.19;5078427;28;20653;-77
2023/12/22 08:33:33;;;;;;;7.97;3.87;;;;;;;8.68;100.00;99524.78;5079075;28;20286;-77
2023/12/22 08:35:58;;;;;;;9.77;3.70;;;;;;;8.74;100.00;99522.09;5079844;28;20260;-78
2023/12/22 08:38:23;;;;;;;11.77;4.10;;;;;;;8.74;100.00;99523.84;5078108;28;20235;-78
2023/12/22 08:40:49;;;;;;;11.33;4.40;;;;;;;8.77;100.00;99505.75;5076884;28;20177;-78
2023/12/22 08:43:15;;;;;;;12.03;4.07;;;;;;;8.80;100.00;99506.56;5077738;28;20188;-77
2023/12/22 08:45:40;;;;;;;11.60;3.87;;;;;;;8.83;100.00;99510.81;5080482;28;20192;-78
2023/12/22 08:48:07;;;;;;;11.13;4.13;;;;;;;8.87;100.00;99515.06;5078206;28;20181;-77
2023/12/22 08:50:33;;;;;;;9.90;4.03;;;;;;;8.93;100.00;99511.53;5079046;28;20181;-77
2023/12/22 08:52:58;;;;;;;11.03;4.07;;;;;;;8.94;100.00;99498.59;5075390;28;20211;-75
2023/12/22 08:55:23;;;;;;;10.67;4.10;;;;;;;9.00;100.00;99495.94;5074627;28;20584;-77
2023/12/22 08:57:49;;;;;;;11.43;4.33;;;;;;;9.07;100.00;99512.19;5077259;28;20187;-77
2023/12/22 09:00:14;;;;;;;11.37;3.83;;;;;;;9.09;100.00;99518.19;5075492;28;20193;-77
2023/12/22 09:02:41;;;;;;;8.73;3.60;;;;;;;9.13;100.00;99516.38;5078198;28;20193;-78
2023/12/22 09:05:07;;;;;;;11.97;3.80;;;;;;;9.14;100.00;99523.25;5078045;28;20181;-77
2023/12/22 09:07:32;;;;;;;12.00;3.97;;;;;;;9.18;100.00;99512.03;5079298;28;20235;-77
2023/12/22 09:09:58;;;;;;;14.67;4.33;;;;;;;9.20;100.00;99510.28;5078756;28;20224;-76
2023/12/22 09:12:23;;;;;;;8.57;3.57;;;;;;;9.16;100.00;99508.59;5077027;28;20292;-76
2023/12/22 09:14:49;;;;;;;13.43;4.47;;;;;;;9.19;100.00;99505.13;5081236;28;20213;-76
2023/12/22 09:17:16;;;;;;;10.23;3.83;;;;;;;9.18;100.00;99506.00;5073590;28;20188;-76
2023/12/22 09:19:42;;;;;;;11.77;5.30;;;;;;;9.18;100.00;99509.44;5073252;28;20223;-78
2023/12/22 09:22:08;;;;;;;13.57;6.40;;;;;;;9.21;100.00;99511.09;5071878;28;20292;-78
2023/12/22 09:24:33;;;;;;;14.50;7.23;;;;;;;9.21;100.00;99511.09;5072913;28;20410;-76
2023/12/22 09:27:02;;;;;;;18.60;9.90;;;;;;;9.27;100.00;99513.59;5078605;28;20208;-77
2023/12/22 09:29:29;;;;;;;14.50;5.10;;;;;;;9.30;100.00;99514.41;5071429;28;20212;-77
2023/12/22 09:31:54;;;;;;;13.37;5.53;;;;;;;9.29;100.00;99509.28;5073030;28;20189;-78
2023/12/22 09:34:19;;;;;;;11.67;5.10;;;;;;;9.25;100.00;99494.69;5077542;28;20232;-76
2023/12/22 09:36:45;;;;;;;11.70;5.30;;;;;;;9.23;100.00;99483.53;5079161;28;20260;-77
2023/12/22 09:39:11;;;;;;;14.63;6.43;;;;;;;9.29;100.00;99481.72;5079890;28;20219;-78
2023/12/22 09:41:36;;;;;;;11.80;4.73;;;;;;;9.28;100.00;99480.00;5075961;28;20700;-77
2023/12/22 09:44:03;;;;;;;10.03;4.17;;;;;;;9.32;100.00;99487.69;5078315;28;20190;-77
2023/12/22 09:46:30;;;;;;;10.27;4.00;;;;;;;9.32;100.00;99491.13;5077065;28;20208;-75
2023/12/22 09:48:55;;;;;;;11.43;4.93;;;;;;;9.30;100.00;99500.66;5077009;28;20213;-78
2023/12/22 09:51:21;;;;;;;9.27;3.90;;;;;;;9.36;100.00;99495.38;5080190;28;20217;-78
2023/12/22 09:53:47;;;;;;;10.27;4.43;;;;;;;9.34;100.00;99502.28;5067385;28;20254;-77
2023/12/22 09:56:14;;;;;;;12.30;4.60;;;;;;;9.42;100.00;99497.84;5068473;28;20196;-76
2023/12/22 09:58:41;;;;;;;10.87;4.17;;;;;;;9.42;100.00;99504.75;5070890;28;20223;-78
2023/12/22 10:01:07;;;;;;;8.80;4.00;;;;;;;9.45;100.00;99505.53;5070765;28;20538;-76
2023/12/22 10:03:37;;;;;;;13.03;5.13;;;;;;;9.45;100.00;99502.94;5069989;28;20211;-78
2023/12/22 10:06:03;;;;;;;8.13;4.07;;;;;;;9.44;100.00;99509.03;5073283;28;20215;-77
2023/12/22 10:08:28;;;;;;;14.17;4.43;;;;;;;9.45;100.00;99495.19;5076580;28;20223;-77
2023/12/22 10:10:55;;;;;;;10.27;3.97;;;;;;;9.43;100.00;99504.72;5073589;28;20189;-77
2023/12/22 10:13:20;;;;;;;11.47;3.83;;;;;;;9.46;100.00;99503.81;5073552;28;20271;-77
2023/12/22 10:15:47;;;;;;;12.80;4.47;;;;;;;9.49;100.00;99506.34;5072323;28;20584;-78
2023/12/22 10:18:12;;;;;;;14.07;4.33;;;;;;;9.43;100.00;99499.56;5075507;28;20325;-78
2023/12/22 10:20:38;;;;;;;9.47;3.60;;;;;;;9.38;100.00;99505.66;5071008;28;20178;-76
2023/12/22 10:23:03;;;;;;;11.13;4.33;;;;;;;9.36;100.00;99500.53;5065899;28;20509;-76
2023/12/22 10:25:29;;;;;;;11.07;3.83;;;;;;;9.32;100.00;99492.88;5074838;28;20671;-77
2023/12/22 10:27:55;;;;;;;10.20;3.70;;;;;;;9.24;100.00;99486.09;5072162;28;20204;-76
2023/12/22 10:30:24;;;;;;;9.47;3.83;;;;;;;9.18;100.00;99493.06;5074117;28;20306;-77
2023/12/22 10:32:51;;;;;;;10.23;3.73;;;;;;;9.18;100.00;99495.66;5078558;28;20185;-76
2023/12/22 10:35:16;;;;;;;10.90;3.87;;;;;;;9.14;100.00;99492.28;5078760;28;20532;-77
2023/12/22 10:37:42;;;;;;;10.80;3.93;;;;;;;9.10;100.00;99488.03;5074412;28;20731;-78
2023/12/22 10:40:09;;;;;;;11.50;4.03;;;;;;;9.06;100.00;99483.81;5075523;28;20778;-78
2023/12/22 10:42:35;;;;;;;11.93;4.40;;;;;;;9.02;100.00;99472.66;5076902;28;20268;-76
2023/12/22 10:45:01;;;;;;;10.73;4.40;;;;;;;9.00;100.00;99466.69;5078154;28;20177;-78
2023/12/22 10:47:28;;;;;;;12.40;4.53;;;;;;;8.98;100.00;99463.28;5076656;28;20185;-77
2023/12/22 10:49:54;;;;;;;9.80;3.90;;;;;;;8.92;100.00;99459.09;5068872;28;20251;-77
2023/12/22 10:52:20;;;;;;;10.30;4.27;;;;;;;8.90;100.00;99454.81;5069635;28;20268;-78
2023/12/22 10:54:46;;;;;;;10.37;3.97;;;;;;;8.89;100.00;99455.69;5070407;28;20204;-77
2023/12/22 10:57:12;;;;;;;10.87;4.23;;;;;;;8.89;100.00;99450.53;5075380;28;20197;-77
2023/12/22 10:59:46;;;;;;;13.90;4.57;;;;;;;8.89;100.00;99447.94;5074353;28;20206;-78
2023/12/22 11:02:18;;;;;;;8.83;3.90;;;;;;;8.85;100.00;99457.47;5076812;28;20187;-77
2023/12/22 11:05:02;;;;;;;9.57;3.77;;;;;;;8.87;100.00;99457.44;5085113;28;20198;-77
2023/12/22 11:07:28;;;;;;;11.87;4.40;;;;;;;8.92;100.00;99447.91;5075976;28;20243;-77
2023/12/22 11:09:57;;;;;;;7.37;3.57;;;;;;;8.90;100.00;99450.50;5076296;28;20640;-77
2023/12/22 11:12:24;;;;;;;10.20;3.40;;;;;;;8.89;100.00;99447.94;5069545;28;20247;-76
2023/12/22 11:14:52;;;;;;;8.40;3.47;;;;;;;8.93;100.00;99441.88;5072791;28;20242;-77
2023/12/22 11:17:22;;;;;;;6.43;2.77;;;;;;;8.94;100.00;99430.66;5065745;28;20186;-78
2023/12/22 11:19:50;;;;;;;8.23;3.00;;;;;;;8.98;100.00;99442.66;5073129;28;20861;-76
2023/12/22 11:22:18;;;;;;;6.73;3.60;;;;;;;8.97;100.00;99439.19;5072497;28;20194;-77
2023/12/22 11:24:46;;;;;;;6.37;2.93;;;;;;;8.95;100.00;99433.22;5064178;28;20177;-78
2023/12/22 11:27:13;;;;;;;7.97;2.83;;;;;;;8.97;100.00;99428.88;5072649;28;20184;-77